TimeEST,TemperatureF,Dew PointF,Humidity,Sea Level PressureIn,VisibilityMPH,Wind Direction,Wind SpeedMPH,Gust SpeedMPH,PrecipitationIn,Events,Conditions,WindDirDegrees,DateUTC
12:05 AM,35.6,28.4,75,29.89,10.0,North,10.4,-,N/A,,Mostly Cloudy,360,2013-02-14 05:05:00
12:35 AM,35.6,28.4,75,29.90,10.0,North,12.7,19.6,N/A,,Scattered Clouds,360,2013-02-14 05:35:00
12:54 AM,35.1,28.9,78,29.91,10.0,North,10.4,18.4,N/A,,Clear,350,2013-02-14 05:54:00
1:54 AM,35.1,28.9,78,29.91,10.0,North,9.2,19.6,N/A,,Clear,350,2013-02-14 06:54:00
2:54 AM,34.0,27.0,75,29.92,10.0,North,11.5,16.1,N/A,,Partly Cloudy,350,2013-02-14 07:54:00
3:54 AM,34.0,27.0,75,29.91,10.0,North,13.8,25.3,N/A,,Clear,350,2013-02-14 08:54:00
4:54 AM,33.1,27.0,78,29.94,10.0,North,13.8,20.7,N/A,,Clear,350,2013-02-14 09:54:00
5:54 AM,32.0,26.1,79,29.96,10.0,NNW,6.9,-,N/A,,Mostly Cloudy,330,2013-02-14 10:54:00
6:54 AM,30.9,26.1,82,29.99,10.0,NNW,5.8,-,N/A,,Overcast,330,2013-02-14 11:54:00
7:39 AM,30.2,24.8,80,29.99,10.0,NNW,5.8,-,N/A,,Scattered Clouds,340,2013-02-14 12:39:00
7:54 AM,32.0,25.0,75,30.02,10.0,North,5.8,-,N/A,,Clear,360,2013-02-14 12:54:00
8:54 AM,35.1,26.1,70,30.04,10.0,NNW,6.9,-,N/A,,Clear,340,2013-02-14 13:54:00
9:54 AM,37.0,26.1,65,30.04,10.0,North,4.6,-,N/A,,Clear,360,2013-02-14 14:54:00
10:54 AM,42.1,28.0,58,30.02,10.0,NNW,8.1,-,N/A,,Clear,330,2013-02-14 15:54:00
11:54 AM,45.0,28.0,52,30.02,10.0,North,3.5,-,N/A,,Clear,360,2013-02-14 16:54:00
12:54 PM,46.0,28.0,50,30.00,10.0,Calm,Calm,-,N/A,,Clear,0,2013-02-14 17:54:00
1:54 PM,48.0,27.0,44,29.95,10.0,Calm,Calm,-,N/A,,Clear,0,2013-02-14 18:54:00
2:54 PM,53.1,28.9,40,29.96,10.0,Calm,Calm,-,N/A,,Clear,0,2013-02-14 19:54:00
3:54 PM,51.1,25.0,36,29.95,10.0,Calm,Calm,-,N/A,,Clear,0,2013-02-14 20:54:00
4:54 PM,53.1,25.0,34,29.96,10.0,Variable,3.5,-,N/A,,Clear,0,2013-02-14 21:54:00
5:54 PM,48.9,26.1,41,29.97,10.0,NNW,11.5,-,N/A,,Clear,330,2013-02-14 22:54:00
6:54 PM,46.0,25.0,44,29.99,10.0,North,3.5,-,N/A,,Clear,350,2013-02-14 23:54:00
7:54 PM,42.1,26.1,53,30.01,10.0,NNW,6.9,-,N/A,,Clear,330,2013-02-15 00:54:00
8:54 PM,41.0,26.1,55,30.01,10.0,Calm,Calm,-,N/A,,Clear,0,2013-02-15 01:54:00
9:54 PM,39.0,26.1,60,30.04,10.0,Calm,Calm,-,N/A,,Clear,0,2013-02-15 02:54:00
10:54 PM,34.0,28.0,79,30.05,10.0,Calm,Calm,-,N/A,,Clear,0,2013-02-15 03:54:00
11:54 PM,33.1,28.0,82,30.05,10.0,Calm,Calm,-,N/A,,Clear,0,2013-02-15 04:54:00